Terminal Aerodrome Forecast
Issued by NWS Bismarck, ND

Home | Current Version | Previous Version | Graphics & Text | Print | Product List | Glossary Off
Versions: 1 2 3 4 5 6 7 8 9 10 11 12 13

704
FTUS43 KBIS 192340
TAFISN
TAF
KISN 192340Z 2000/2024 19003KT P6SM SCT250
     FM201000 22006KT P6SM SCT250
     FM201800 28018G26KT P6SM BKN200=

USA.gov is the U.S. government's official web portal to all federal, state and local government web resources and services.